Available data for KLBE from the past 2 hours
LATROBE/WESTMORL, PA
Metar
KLBE 211253Z 28015KT 10SM BKN025 M16/M20 A3033

12:53 UTC

Wind: 280° 15kt

Visibility: 10 SM

Sky: BKN 2500 ft

Temp: -16 deg C / 3.2 deg F

Dewpoint: -20 deg C / -4 deg F

Pressure: 30.33 inHg

TAF
KLBE 211126Z 2112/2212 29011G18KT P6SM VCSH BKN025 FM211600 28011G19KT P6SM SCT030 FM220000 25006KT P6SM BKN250
Pireps (2)
PSB UA /OV PSB180015/TM 1155/FL320/TP B767/TB MDT CHOP
FIG UA /OV JST030040/TM 1132/FL320/TP B717/TB MDT TURB/RM DURGC TO FL320/ FL330 SMOOTH